TimeCST,TemperatureF,Dew PointF,Humidity,Sea Level PressureIn,VisibilityMPH,Wind Direction,Wind SpeedMPH,Gust SpeedMPH,PrecipitationIn,Events,Conditions,WindDirDegrees,DateUTC
12:15 AM,34.2,32.7,94,29.99,4.0,Calm,Calm,-,0.04,Rain,Rain,0,2013-12-14 06:15:00
12:35 AM,34.7,34.5,99,29.97,5.0,Calm,Calm,-,0.07,Rain,Rain,0,2013-12-14 06:35:00
12:55 AM,35.1,34.5,98,29.97,4.0,Calm,Calm,-,0.13,Rain,Rain,0,2013-12-14 06:55:00
1:15 AM,34.9,34.9,100,29.96,4.0,Calm,Calm,-,0.03,Rain,Rain,0,2013-12-14 07:15:00
1:35 AM,34.9,34.9,100,29.94,5.0,East,3.5,-,0.06,Rain,Rain,100,2013-12-14 07:35:00
1:55 AM,34.9,34.9,100,29.93,5.0,East,3.5,-,0.10,Rain,Rain,100,2013-12-14 07:55:00
2:15 AM,35.1,35.1,100,29.93,5.0,East,3.5,-,0.03,Rain,Rain,100,2013-12-14 08:15:00
2:35 AM,35.2,35.2,100,29.92,4.0,East,4.6,-,0.08,Rain,Rain,100,2013-12-14 08:35:00
2:55 AM,35.4,35.4,100,29.89,4.0,East,4.6,-,0.11,Rain,Light Rain,100,2013-12-14 08:55:00
3:15 AM,35.2,35.2,100,29.88,4.0,East,4.6,-,0.02,Rain,Rain,90,2013-12-14 09:15:00
3:35 AM,35.1,35.1,100,29.85,3.0,East,5.8,-,0.06,Rain,Rain,90,2013-12-14 09:35:00
3:55 AM,35.4,35.4,100,29.84,2.0,Calm,Calm,-,0.11,Rain,Rain,0,2013-12-14 09:55:00
4:15 AM,35.6,35.6,100,29.82,1.5,ESE,5.8,-,0.07,Snow,Light Snow,110,2013-12-14 10:15:00
4:35 AM,35.8,35.8,100,29.84,4.0,Calm,Calm,-,0.11,Rain,Rain,0,2013-12-14 10:35:00
4:55 AM,36.0,36.0,100,29.83,4.0,Calm,Calm,-,0.14,Rain,Rain,0,2013-12-14 10:55:00
5:15 AM,35.6,35.6,100,29.83,1.8,Calm,Calm,-,0.02,Rain,Rain,0,2013-12-14 11:15:00
5:35 AM,34.7,34.7,100,29.83,0.2,Calm,Calm,-,0.03,Rain,Rain,0,2013-12-14 11:35:00
5:55 AM,34.9,34.9,100,29.83,0.8,Calm,Calm,-,0.03,,Light Drizzle,0,2013-12-14 11:55:00
6:15 AM,34.9,34.9,100,29.82,0.8,Calm,Calm,-,0.01,Rain,Light Rain,0,2013-12-14 12:15:00
6:35 AM,35.4,35.4,100,29.81,1.2,Calm,Calm,-,0.02,Rain,Light Rain,0,2013-12-14 12:35:00
6:55 AM,36.0,36.0,100,29.82,1.8,Calm,Calm,-,0.03,Rain,Rain,0,2013-12-14 12:55:00
7:15 AM,35.6,35.6,100,29.81,1.2,Calm,Calm,-,N/A,,Light Drizzle,0,2013-12-14 13:15:00
7:35 AM,35.6,35.6,100,29.81,0.8,Calm,Calm,-,N/A,,Overcast,0,2013-12-14 13:35:00
7:55 AM,36.0,36.0,100,29.81,0.8,Calm,Calm,-,N/A,,Overcast,0,2013-12-14 13:55:00
8:15 AM,36.5,36.5,100,29.82,0.5,Calm,Calm,-,N/A,,Light Drizzle,0,2013-12-14 14:15:00
8:35 AM,36.3,36.3,100,29.82,0.5,Calm,Calm,-,0.01,Rain,Rain,0,2013-12-14 14:35:00
8:55 AM,36.9,36.9,100,29.83,1.5,West,3.5,-,0.03,Rain,Light Rain,260,2013-12-14 14:55:00
9:15 AM,37.0,37.0,100,29.83,2.5,West,3.5,-,0.01,Rain,Light Rain,270,2013-12-14 15:15:00
9:35 AM,37.0,37.0,100,29.83,3.0,Calm,Calm,-,0.01,,Light Drizzle,0,2013-12-14 15:35:00
9:55 AM,37.2,37.2,100,29.83,4.0,Calm,Calm,-,0.01,,Overcast,0,2013-12-14 15:55:00
10:15 AM,37.8,37.8,100,29.83,10.0,West,6.9,-,N/A,,Overcast,270,2013-12-14 16:15:00
10:35 AM,37.4,37.4,100,29.82,7.0,WNW,9.2,-,N/A,,Overcast,290,2013-12-14 16:35:00
10:55 AM,37.4,37.4,100,29.82,10.0,WNW,8.1,-,N/A,,Overcast,290,2013-12-14 16:55:00
11:15 AM,37.9,36.9,96,29.82,10.0,WNW,8.1,-,N/A,,Overcast,290,2013-12-14 17:15:00
11:35 AM,37.8,36.3,95,29.83,10.0,WNW,9.2,-,N/A,,Overcast,290,2013-12-14 17:35:00
11:55 AM,37.8,35.8,93,29.83,10.0,West,9.2,-,N/A,,Overcast,280,2013-12-14 17:55:00
12:15 PM,37.8,35.2,91,29.83,10.0,West,6.9,-,N/A,,Overcast,280,2013-12-14 18:15:00
12:35 PM,37.8,35.1,90,29.84,10.0,NW,6.9,-,N/A,,Overcast,310,2013-12-14 18:35:00
12:55 PM,37.8,34.5,88,29.83,10.0,WNW,12.7,-,N/A,,Overcast,300,2013-12-14 18:55:00
1:15 PM,37.4,33.8,87,29.85,10.0,WNW,10.4,-,N/A,,Overcast,290,2013-12-14 19:15:00
1:35 PM,37.0,33.8,88,29.86,10.0,WNW,4.6,-,N/A,,Overcast,290,2013-12-14 19:35:00
1:55 PM,37.0,33.8,88,29.87,10.0,West,5.8,-,N/A,,Overcast,280,2013-12-14 19:55:00
2:15 PM,36.9,33.4,87,29.88,10.0,WNW,5.8,-,N/A,,Overcast,300,2013-12-14 20:15:00
2:35 PM,36.9,33.4,87,29.89,10.0,WNW,4.6,-,N/A,,Overcast,290,2013-12-14 20:35:00
2:55 PM,36.9,33.4,87,29.90,10.0,WNW,5.8,-,N/A,,Overcast,290,2013-12-14 20:55:00
3:15 PM,36.7,33.3,87,29.91,10.0,West,6.9,-,N/A,,Overcast,280,2013-12-14 21:15:00
3:35 PM,36.7,32.9,86,29.92,10.0,West,4.6,-,N/A,,Overcast,280,2013-12-14 21:35:00
3:55 PM,36.5,32.4,85,29.93,10.0,WNW,8.1,-,N/A,,Overcast,300,2013-12-14 21:55:00
4:15 PM,36.5,32.0,84,29.94,10.0,WNW,8.1,-,N/A,,Overcast,300,2013-12-14 22:15:00
4:35 PM,36.5,32.2,84,29.94,10.0,WNW,8.1,-,N/A,,Overcast,300,2013-12-14 22:35:00
4:55 PM,36.1,32.2,86,29.95,10.0,WNW,10.4,-,N/A,,Overcast,300,2013-12-14 22:55:00
5:15 PM,36.1,32.2,86,29.96,10.0,WNW,11.5,-,N/A,,Overcast,300,2013-12-14 23:15:00
5:35 PM,36.0,32.0,86,29.97,10.0,NW,9.2,16.1,N/A,,Overcast,320,2013-12-14 23:35:00
5:55 PM,35.8,32.2,87,29.97,10.0,NW,4.6,-,N/A,,Overcast,310,2013-12-14 23:55:00
6:15 PM,35.6,32.0,87,29.98,10.0,NW,9.2,-,N/A,,Overcast,320,2013-12-15 00:15:00
6:35 PM,35.6,32.0,87,29.99,10.0,NW,8.1,-,N/A,,Overcast,310,2013-12-15 00:35:00
6:55 PM,35.6,32.0,87,30.00,10.0,NW,11.5,19.6,N/A,,Overcast,320,2013-12-15 00:55:00
7:15 PM,35.4,32.0,87,30.00,10.0,NNW,12.7,18.4,N/A,,Overcast,330,2013-12-15 01:15:00
7:35 PM,35.2,31.6,87,30.01,10.0,NW,8.1,-,N/A,,Overcast,320,2013-12-15 01:35:00
7:55 PM,34.7,31.1,87,30.02,10.0,NW,11.5,-,N/A,,Overcast,310,2013-12-15 01:55:00
8:15 PM,34.7,30.9,86,30.03,7.0,NW,11.5,17.3,N/A,,Overcast,320,2013-12-15 02:15:00
8:35 PM,34.5,30.0,84,30.04,7.0,NW,9.2,-,N/A,,Overcast,310,2013-12-15 02:35:00
8:55 PM,34.2,29.7,84,30.05,7.0,NW,9.2,18.4,N/A,,Overcast,310,2013-12-15 02:55:00
9:15 PM,34.0,29.3,83,30.06,7.0,NW,12.7,17.3,N/A,,Overcast,320,2013-12-15 03:15:00
9:35 PM,33.4,29.3,85,30.07,5.0,NW,10.4,20.7,N/A,,Haze,310,2013-12-15 03:35:00
9:55 PM,33.3,29.3,85,30.08,5.0,NNW,9.2,19.6,N/A,,Overcast,330,2013-12-15 03:55:00
10:15 PM,33.1,29.3,86,30.09,5.0,NW,8.1,-,N/A,,Overcast,320,2013-12-15 04:15:00
10:35 PM,33.1,28.9,85,30.10,5.0,NW,9.2,-,N/A,,Overcast,320,2013-12-15 04:35:00
10:55 PM,32.5,28.4,85,30.10,5.0,NW,10.4,-,N/A,,Haze,320,2013-12-15 04:55:00
11:15 PM,32.4,28.4,85,30.10,5.0,NNW,12.7,-,N/A,,Overcast,330,2013-12-15 05:15:00
11:35 PM,32.0,28.4,87,30.10,5.0,NW,5.8,-,N/A,,Overcast,320,2013-12-15 05:35:00
11:55 PM,32.0,28.6,87,30.11,4.0,NW,8.1,-,N/A,,Overcast,320,2013-12-15 05:55:00